createdAt,value
2022-12-11T09:59:38.009Z,97999.56
2022-12-11T10:02:47.807Z,98007.19
2022-12-11T10:05:29.715Z,98003.63
2022-12-11T10:08:00.635Z,98004.06
2022-12-11T10:10:37.297Z,97993.34
2022-12-11T10:13:27.770Z,97995.94
2022-12-11T10:16:04.419Z,97990.22
2022-12-11T10:18:32.525Z,97975.13
2022-12-11T10:21:02.352Z,97986.38
2022-12-11T10:23:43.075Z,97969.41
2022-12-11T10:26:21.312Z,97982.44
2022-12-11T10:28:48.275Z,97977.50
2022-12-11T10:31:24.263Z,97972.44
2022-12-11T10:34:01.298Z,97968.38
2022-12-11T10:36:35.089Z,97963.16
2022-12-11T10:39:02.133Z,97964.81
2022-12-11T10:41:39.135Z,97956.66
2022-12-11T10:44:19.698Z,97952.75
2022-12-11T10:46:48.305Z,97948.06
2022-12-11T10:49:26.623Z,97953.50
2022-12-11T10:51:55.336Z,97945.69
2022-12-11T10:54:45.681Z,97950.16
2022-12-11T10:57:14.386Z,97941.88
2022-12-11T10:59:47.748Z,97938.34
2022-12-11T11:02:33.321Z,97940.75
2022-12-11T11:05:01.478Z,97935.50
2022-12-11T11:07:33.154Z,97934.53
2022-12-11T11:10:10.557Z,97935.28
2022-12-11T11:12:49.807Z,97933.41
2022-12-11T11:15:22.481Z,97924.13
2022-12-11T11:17:55.434Z,97926.41
2022-12-11T11:20:28.446Z,97920.19
2022-12-11T11:23:03.451Z,97916.50
2022-12-11T11:25:32.674Z,97910.06
2022-12-11T11:28:03.663Z,97910.78
2022-12-11T11:30:33.973Z,97914.38
2022-12-11T11:33:05.626Z,97914.28
2022-12-11T11:35:32.894Z,97905.75
2022-12-11T11:38:15.082Z,97898.09
2022-12-11T11:41:17.549Z,97897.75
2022-12-11T11:43:46.962Z,97895.72
2022-12-11T11:46:36.607Z,97893.47
2022-12-11T11:49:22.439Z,97894.22
2022-12-11T11:52:01.034Z,97901.16
2022-12-11T11:54:48.935Z,97898.72
2022-12-11T11:57:38.770Z,97892.09
2022-12-11T12:00:16.728Z,97890.16
2022-12-11T12:02:44.045Z,97890.94
2022-12-11T12:05:33.850Z,97881.34
2022-12-11T12:08:12.383Z,97893.41
2022-12-11T12:11:00.142Z,97887.09
2022-12-11T12:13:49.686Z,97889.63
2022-12-11T12:16:56.370Z,97885.63
2022-12-11T12:19:32.001Z,97894.44
2022-12-11T12:22:15.142Z,97893.47
2022-12-11T12:25:20.232Z,97905.31
2022-12-11T12:28:02.558Z,97901.72
2022-12-11T12:30:35.718Z,97899.06
2022-12-11T12:33:18.798Z,97906.13
2022-12-11T12:36:07.191Z,97900.16
2022-12-11T12:38:57.515Z,97893.47
2022-12-11T12:41:45.775Z,97895.72
2022-12-11T12:44:23.452Z,97900.47
2022-12-11T12:47:00.687Z,97904.16
2022-12-11T12:49:47.293Z,97894.03
2022-12-11T12:52:22.329Z,97897.88
2022-12-11T12:55:13.557Z,97899.78
2022-12-11T12:57:48.061Z,97901.50
2022-12-11T13:00:27.780Z,97902.03
2022-12-11T13:02:56.233Z,97898.00
2022-12-11T13:05:29.345Z,97910.88
2022-12-11T13:08:00.203Z,97908.00
2022-12-11T13:10:38.757Z,97899.31
2022-12-11T13:13:25.564Z,97901.25
2022-12-11T13:15:51.986Z,97901.25
2022-12-11T13:18:51.005Z,97909.19
2022-12-11T13:21:35.146Z,97910.25
2022-12-11T13:24:15.954Z,97907.56
2022-12-11T13:26:42.896Z,97905.25
2022-12-11T13:29:32.397Z,97910.28
2022-12-11T13:32:20.533Z,97905.19
2022-12-11T13:35:00.740Z,97907.47
2022-12-11T13:37:38.605Z,97915.75
2022-12-11T13:40:27.608Z,97911.56
2022-12-11T13:42:58.559Z,97910.66
2022-12-11T13:45:48.866Z,97913.31
2022-12-11T13:48:24.267Z,97913.06
2022-12-11T13:50:53.312Z,97921.78
2022-12-11T13:53:21.264Z,97916.31
2022-12-11T13:55:57.908Z,97910.56
2022-12-11T13:58:24.961Z,97904.09
2022-12-11T14:01:14.473Z,97913.34
2022-12-11T14:03:50.702Z,97916.31
2022-12-11T14:06:19.142Z,97923.47
2022-12-11T14:08:50.433Z,97917.03
2022-12-11T14:11:27.723Z,97922.28
2022-12-11T14:13:56.941Z,97924.53
2022-12-11T14:16:24.761Z,97932.34
2022-12-11T14:18:53.103Z,97927.78
2022-12-11T14:21:24.508Z,97927.72
2022-12-11T14:23:57.377Z,97927.50
2022-12-11T14:26:37.812Z,97933.00
2022-12-11T14:29:05.306Z,97932.66
2022-12-11T14:31:44.210Z,97940.16
2022-12-11T14:34:32.249Z,97929.88
2022-12-11T14:37:00.776Z,97937.63
2022-12-11T14:39:34.159Z,97939.47
2022-12-11T14:42:07.727Z,97937.28
2022-12-11T14:44:57.107Z,97938.56
2022-12-11T14:47:32.322Z,97939.28
2022-12-11T14:50:08.176Z,97946.09
2022-12-11T14:52:44.983Z,97946.03
2022-12-11T14:55:24.341Z,97947.44
2022-12-11T14:57:56.944Z,97949.16
2022-12-11T15:00:30.171Z,97948.75
2022-12-11T15:02:59.240Z,97943.34
2022-12-11T15:05:27.506Z,97948.03
2022-12-11T15:08:13.969Z,97952.66
2022-12-11T15:10:54.464Z,97947.78
2022-12-11T15:13:24.982Z,97943.19
2022-12-11T15:15:54.552Z,97939.25
2022-12-11T15:18:23.553Z,97941.56
2022-12-11T15:20:56.103Z,97939.88
2022-12-11T15:23:22.672Z,97942.88
2022-12-11T15:25:56.533Z,97934.63
2022-12-11T15:28:29.846Z,97932.94
2022-12-11T15:31:01.052Z,97933.91
2022-12-11T15:33:33.931Z,97927.56
2022-12-11T15:36:02.969Z,97932.34
2022-12-11T15:38:40.631Z,97926.75
2022-12-11T15:41:14.324Z,97925.78
2022-12-11T15:43:41.179Z,97910.13
2022-12-11T15:46:07.719Z,97919.19
2022-12-11T15:48:34.297Z,97916.56
2022-12-11T15:51:00.720Z,97907.13
2022-12-11T15:53:27.296Z,97912.84
2022-12-11T15:55:53.706Z,97914.53
2022-12-11T15:58:22.991Z,97908.16
2022-12-11T16:00:49.977Z,97906.59
2022-12-11T16:03:19.497Z,97910.69
2022-12-11T16:05:46.763Z,97908.00
2022-12-11T16:08:19.289Z,97917.06
2022-12-11T16:10:46.476Z,97913.00
2022-12-11T16:13:14.103Z,97914.66
2022-12-11T16:15:46.345Z,97913.00
2022-12-11T16:18:19.338Z,97911.75
2022-12-11T16:20:46.505Z,97914.63
2022-12-11T16:23:14.654Z,97912.66
2022-12-11T16:25:45.198Z,97917.69
2022-12-11T16:28:13.869Z,97914.56
2022-12-11T16:30:42.136Z,97912.25
2022-12-11T16:33:12.875Z,97915.44
2022-12-11T16:35:41.702Z,97916.63
2022-12-11T16:38:09.908Z,97909.09
2022-12-11T16:40:37.035Z,97913.09
2022-12-11T16:43:05.078Z,97909.97
2022-12-11T16:45:32.559Z,97911.00
2022-12-11T16:48:02.106Z,97911.56
2022-12-11T16:50:28.896Z,97902.78
2022-12-11T16:52:56.428Z,97903.94
2022-12-11T16:55:22.892Z,97894.72
2022-12-11T16:57:49.479Z,97900.06
2022-12-11T17:00:16.453Z,97896.09
2022-12-11T17:02:43.238Z,97894.13
2022-12-11T17:05:10.127Z,97893.78
2022-12-11T17:07:37.169Z,97892.53
2022-12-11T17:10:03.700Z,97892.03
2022-12-11T17:12:30.870Z,97895.50
2022-12-11T17:14:57.509Z,97885.44
2022-12-11T17:17:24.744Z,97885.66
2022-12-11T17:19:51.360Z,97879.69
2022-12-11T17:22:17.843Z,97880.53
2022-12-11T17:24:44.397Z,97895.94
2022-12-11T17:27:10.828Z,97885.69
2022-12-11T17:29:37.869Z,97887.78
2022-12-11T17:32:05.270Z,97891.13
2022-12-11T17:34:37.850Z,97886.19
2022-12-11T17:37:05.651Z,97883.97
2022-12-11T17:39:32.351Z,97887.25
2022-12-11T17:41:58.982Z,97889.22
2022-12-11T17:44:26.543Z,97886.50
2022-12-11T17:46:53.227Z,97886.00
2022-12-11T17:49:19.772Z,97888.81
2022-12-11T17:51:47.977Z,97889.09
2022-12-11T17:54:14.873Z,97896.03
2022-12-11T17:56:41.414Z,97892.34
2022-12-11T17:59:07.876Z,97894.63
2022-12-11T18:01:34.734Z,97893.63
2022-12-11T18:04:02.205Z,97888.78
2022-12-11T18:06:29.252Z,97895.16
2022-12-11T18:08:56.208Z,97901.22
2022-12-11T18:11:23.698Z,97905.09
2022-12-11T18:13:52.223Z,97903.22
2022-12-11T18:16:29.628Z,97895.38
2022-12-11T18:18:56.588Z,97895.44
2022-12-11T18:21:28.703Z,97898.19
2022-12-11T18:23:55.735Z,97903.22
2022-12-11T18:26:22.646Z,97900.06
2022-12-11T18:28:50.655Z,97898.38
2022-12-11T18:31:18.402Z,97895.78
2022-12-11T18:33:45.950Z,97901.28
2022-12-11T18:36:14.458Z,97896.25
2022-12-11T18:38:42.290Z,97900.66
2022-12-11T18:41:10.678Z,97900.03
2022-12-11T18:43:38.092Z,97900.13
2022-12-11T18:46:12.548Z,97898.56
2022-12-11T18:48:39.334Z,97889.88
2022-12-11T18:51:12.509Z,97900.34
2022-12-11T18:53:39.639Z,97899.59
2022-12-11T18:56:09.759Z,97903.16
2022-12-11T18:58:37.122Z,97901.78
2022-12-11T19:01:22.311Z,97913.19
2022-12-11T19:03:51.247Z,97912.34
2022-12-11T19:06:21.348Z,97914.00
2022-12-11T19:08:48.396Z,97917.56
2022-12-11T19:11:17.178Z,97922.25
2022-12-11T19:13:44.543Z,97919.66
2022-12-11T19:16:16.758Z,97923.41
2022-12-11T19:18:44.584Z,97923.59
2022-12-11T19:21:12.963Z,97928.66
2022-12-11T19:23:40.281Z,97924.31
2022-12-11T19:26:19.393Z,97933.94
2022-12-11T19:28:47.155Z,97938.13
2022-12-11T19:31:21.028Z,97931.66
2022-12-11T19:33:48.530Z,97936.53
2022-12-11T19:36:23.988Z,97942.31
2022-12-11T19:38:53.594Z,97943.06
2022-12-11T19:41:27.823Z,97941.97
2022-12-11T19:43:57.442Z,97936.28
2022-12-11T19:46:25.714Z,97938.91
2022-12-11T19:48:54.935Z,97936.00
2022-12-11T19:51:34.032Z,97936.72
2022-12-11T19:54:05.390Z,97944.75
2022-12-11T19:56:34.206Z,97934.22
2022-12-11T19:59:06.539Z,97942.91
2022-12-11T20:01:37.424Z,97938.06
2022-12-11T20:04:07.671Z,97942.16
2022-12-11T20:06:38.683Z,97939.47
2022-12-11T20:09:11.167Z,97939.88
2022-12-11T20:11:40.639Z,97945.53
2022-12-11T20:14:09.068Z,97938.53
2022-12-11T20:17:09.172Z,97947.22
2022-12-11T20:19:23.985Z,97948.88
2022-12-11T20:21:51.277Z,97946.69
2022-12-11T20:24:19.778Z,97945.84
2022-12-11T20:26:47.672Z,97947.41
2022-12-11T20:29:16.717Z,97948.38
2022-12-11T20:31:45.694Z,97947.16
2022-12-11T20:34:14.536Z,97945.19
2022-12-11T20:36:41.975Z,97952.84
2022-12-11T20:39:09.343Z,97952.22
2022-12-11T20:41:38.030Z,97952.84
2022-12-11T20:44:06.558Z,97954.44
2022-12-11T20:46:33.847Z,97952.13
2022-12-11T20:49:01.324Z,97954.00
2022-12-11T20:51:29.296Z,97954.00
2022-12-11T20:53:59.134Z,97949.53
2022-12-11T20:56:31.541Z,97941.56
2022-12-11T20:59:00.107Z,97940.75
2022-12-11T21:01:30.301Z,97950.16
2022-12-11T21:03:57.555Z,97942.25
2022-12-11T21:06:25.852Z,97944.56
2022-12-11T21:08:53.661Z,97938.50
2022-12-11T21:11:20.818Z,97937.66
2022-12-11T21:13:50.056Z,97940.38
2022-12-11T21:16:18.708Z,97934.47
2022-12-11T21:18:46.557Z,97932.72
2022-12-11T21:21:13.662Z,97932.91
2022-12-11T21:23:40.191Z,97935.91
2022-12-11T21:26:06.574Z,97934.28
2022-12-11T21:28:35.524Z,97941.31
2022-12-11T21:31:05.375Z,97930.84
2022-12-11T21:33:32.287Z,97937.09
2022-12-11T21:35:59.838Z,97934.78
2022-12-11T21:38:27.741Z,97940.00
2022-12-11T21:40:55.523Z,97933.84
2022-12-11T21:43:22.603Z,97933.34
2022-12-11T21:46:04.945Z,97936.06
2022-12-11T21:48:31.766Z,97933.47
2022-12-11T21:51:07.520Z,97937.00
2022-12-11T21:53:34.232Z,97938.19
2022-12-11T21:56:04.919Z,97937.38
2022-12-11T21:58:31.367Z,97936.50
2022-12-11T22:00:57.701Z,97935.56
2022-12-11T22:03:24.147Z,97940.16
2022-12-11T22:05:50.559Z,97935.00
2022-12-11T22:08:16.932Z,97943.88
2022-12-11T22:10:43.597Z,97943.31
2022-12-11T22:13:10.088Z,97936.59
2022-12-11T22:15:36.518Z,97946.53
2022-12-11T22:18:03.026Z,97944.03
2022-12-11T22:20:30.873Z,97940.66
2022-12-11T22:22:57.282Z,97945.03
2022-12-11T22:25:24.017Z,97937.66
2022-12-11T22:27:50.944Z,97942.88
2022-12-11T22:30:17.682Z,97940.53
2022-12-11T22:32:45.156Z,97939.88
2022-12-11T22:35:11.893Z,97947.59
2022-12-11T22:37:38.590Z,97946.59
2022-12-11T22:40:05.199Z,97943.41
2022-12-11T22:42:32.260Z,97941.56
2022-12-11T22:44:58.720Z,97939.03
2022-12-11T22:47:25.049Z,97948.97
2022-12-11T22:49:51.640Z,97942.94
2022-12-11T22:52:18.245Z,97946.28
2022-12-11T22:54:44.727Z,97954.31
2022-12-11T22:57:11.045Z,97948.91
2022-12-11T22:59:37.538Z,97946.47
2022-12-11T23:02:04.044Z,97941.44
2022-12-11T23:04:30.608Z,97945.78
2022-12-11T23:06:57.389Z,97945.63
2022-12-11T23:09:24.258Z,97949.16
2022-12-11T23:11:51.101Z,97950.19
2022-12-11T23:14:18.787Z,97948.50
2022-12-11T23:16:45.410Z,97947.66
2022-12-11T23:19:12.664Z,97949.50
2022-12-11T23:21:39.621Z,97948.75
2022-12-11T23:24:06.729Z,97953.22
2022-12-11T23:26:33.267Z,97954.25
2022-12-11T23:28:59.952Z,97960.38
2022-12-11T23:31:26.935Z,97956.91
2022-12-11T23:33:53.959Z,97964.91
2022-12-11T23:36:20.447Z,97962.47
2022-12-11T23:38:52.600Z,97953.91
2022-12-11T23:41:21.988Z,97966.88
2022-12-11T23:43:48.384Z,97965.25
2022-12-11T23:46:16.179Z,97962.81
2022-12-11T23:48:42.813Z,97959.47
2022-12-11T23:51:14.069Z,97963.75
2022-12-11T23:53:41.033Z,97965.78
2022-12-11T23:56:14.647Z,97959.81
2022-12-11T23:58:41.315Z,97963.44
